sensor_id;sensor_type;location;lat;lon;timestamp;P1;durP1;ratioP1;P2;durP2;ratioP2
5042;SDS011;2540;50.928;6.856;2023-06-14T00:01:31;10.10;;;5.63;;
5042;SDS011;2540;50.928;6.856;2023-06-14T00:03:59;8.50;;;5.80;;
5042;SDS011;2540;50.928;6.856;2023-06-14T00:06:26;10.17;;;5.67;;
5042;SDS011;2540;50.928;6.856;2023-06-14T00:08:51;7.70;;;5.50;;
5042;SDS011;2540;50.928;6.856;2023-06-14T00:11:17;11.50;;;5.70;;
5042;SDS011;2540;50.928;6.856;2023-06-14T00:13:42;12.73;;;5.53;;
5042;SDS011;2540;50.928;6.856;2023-06-14T00:16:08;6.30;;;5.20;;
5042;SDS011;2540;50.928;6.856;2023-06-14T00:18:33;7.63;;;5.60;;
5042;SDS011;2540;50.928;6.856;2023-06-14T00:20:59;7.87;;;6.33;;
5042;SDS011;2540;50.928;6.856;2023-06-14T00:23:24;7.50;;;5.50;;
5042;SDS011;2540;50.928;6.856;2023-06-14T00:25:50;7.00;;;5.30;;
5042;SDS011;2540;50.928;6.856;2023-06-14T00:28:16;8.00;;;5.83;;
5042;SDS011;2540;50.928;6.856;2023-06-14T00:30:41;8.23;;;5.37;;
5042;SDS011;2540;50.928;6.856;2023-06-14T00:33:09;10.60;;;6.07;;
5042;SDS011;2540;50.928;6.856;2023-06-14T00:35:34;6.87;;;5.03;;
5042;SDS011;2540;50.928;6.856;2023-06-14T00:37:59;12.20;;;6.30;;
5042;SDS011;2540;50.928;6.856;2023-06-14T00:40:25;11.07;;;6.00;;
5042;SDS011;2540;50.928;6.856;2023-06-14T00:42:50;6.87;;;5.60;;
5042;SDS011;2540;50.928;6.856;2023-06-14T00:45:16;9.73;;;5.53;;
5042;SDS011;2540;50.928;6.856;2023-06-14T00:47:41;9.00;;;6.27;;
5042;SDS011;2540;50.928;6.856;2023-06-14T00:50:08;7.87;;;5.63;;
5042;SDS011;2540;50.928;6.856;2023-06-14T00:52:34;11.00;;;6.40;;
5042;SDS011;2540;50.928;6.856;2023-06-14T00:54:59;10.73;;;6.20;;
5042;SDS011;2540;50.928;6.856;2023-06-14T00:57:25;12.37;;;5.90;;
5042;SDS011;2540;50.928;6.856;2023-06-14T00:59:51;14.30;;;5.77;;
5042;SDS011;2540;50.928;6.856;2023-06-14T01:02:17;8.07;;;6.10;;
5042;SDS011;2540;50.928;6.856;2023-06-14T01:04:46;9.67;;;5.90;;
5042;SDS011;2540;50.928;6.856;2023-06-14T01:15:02;11.77;;;5.73;;
5042;SDS011;2540;50.928;6.856;2023-06-14T01:17:28;7.73;;;5.67;;
5042;SDS011;2540;50.928;6.856;2023-06-14T01:19:57;12.30;;;5.37;;
5042;SDS011;2540;50.928;6.856;2023-06-14T01:22:27;16.80;;;6.53;;
5042;SDS011;2540;50.928;6.856;2023-06-14T01:24:53;7.80;;;5.80;;
5042;SDS011;2540;50.928;6.856;2023-06-14T01:27:21;7.13;;;5.90;;
5042;SDS011;2540;50.928;6.856;2023-06-14T01:29:48;9.27;;;6.30;;
5042;SDS011;2540;50.928;6.856;2023-06-14T01:32:16;8.23;;;5.93;;
5042;SDS011;2540;50.928;6.856;2023-06-14T01:34:42;8.20;;;5.30;;
5042;SDS011;2540;50.928;6.856;2023-06-14T01:37:08;10.63;;;5.83;;
5042;SDS011;2540;50.928;6.856;2023-06-14T01:39:34;10.03;;;5.83;;
5042;SDS011;2540;50.928;6.856;2023-06-14T01:41:59;12.00;;;5.90;;
5042;SDS011;2540;50.928;6.856;2023-06-14T01:44:25;9.70;;;6.10;;
5042;SDS011;2540;50.928;6.856;2023-06-14T01:46:51;10.73;;;6.00;;
5042;SDS011;2540;50.928;6.856;2023-06-14T01:49:17;10.37;;;6.10;;
5042;SDS011;2540;50.928;6.856;2023-06-14T01:51:42;8.03;;;5.90;;
5042;SDS011;2540;50.928;6.856;2023-06-14T01:54:07;8.40;;;5.90;;
5042;SDS011;2540;50.928;6.856;2023-06-14T01:56:33;9.00;;;6.83;;
5042;SDS011;2540;50.928;6.856;2023-06-14T01:58:58;10.33;;;6.07;;
5042;SDS011;2540;50.928;6.856;2023-06-14T02:01:23;8.73;;;6.33;;
5042;SDS011;2540;50.928;6.856;2023-06-14T02:03:49;8.50;;;6.07;;
5042;SDS011;2540;50.928;6.856;2023-06-14T02:06:16;7.90;;;6.10;;
5042;SDS011;2540;50.928;6.856;2023-06-14T02:08:41;7.27;;;5.93;;
5042;SDS011;2540;50.928;6.856;2023-06-14T02:11:07;7.53;;;5.80;;
5042;SDS011;2540;50.928;6.856;2023-06-14T02:13:33;6.73;;;5.10;;
5042;SDS011;2540;50.928;6.856;2023-06-14T02:15:59;8.47;;;5.90;;
5042;SDS011;2540;50.928;6.856;2023-06-14T02:18:24;8.10;;;5.90;;
5042;SDS011;2540;50.928;6.856;2023-06-14T02:20:50;9.17;;;6.03;;
5042;SDS011;2540;50.928;6.856;2023-06-14T02:23:15;10.33;;;6.00;;
5042;SDS011;2540;50.928;6.856;2023-06-14T02:25:40;8.87;;;5.87;;
5042;SDS011;2540;50.928;6.856;2023-06-14T02:28:06;10.00;;;6.70;;
5042;SDS011;2540;50.928;6.856;2023-06-14T02:30:31;9.17;;;6.03;;
5042;SDS011;2540;50.928;6.856;2023-06-14T02:32:57;9.03;;;6.20;;
5042;SDS011;2540;50.928;6.856;2023-06-14T02:35:22;8.70;;;5.80;;
5042;SDS011;2540;50.928;6.856;2023-06-14T02:37:51;7.07;;;6.13;;
5042;SDS011;2540;50.928;6.856;2023-06-14T02:40:17;8.83;;;6.23;;
5042;SDS011;2540;50.928;6.856;2023-06-14T02:42:43;7.90;;;6.20;;
5042;SDS011;2540;50.928;6.856;2023-06-14T02:45:08;6.13;;;5.53;;
5042;SDS011;2540;50.928;6.856;2023-06-14T02:47:33;8.30;;;6.60;;
5042;SDS011;2540;50.928;6.856;2023-06-14T02:49:59;6.10;;;5.50;;
5042;SDS011;2540;50.928;6.856;2023-06-14T02:52:24;11.20;;;7.07;;
5042;SDS011;2540;50.928;6.856;2023-06-14T02:54:50;11.43;;;6.57;;
5042;SDS011;2540;50.928;6.856;2023-06-14T02:57:15;9.97;;;6.03;;
5042;SDS011;2540;50.928;6.856;2023-06-14T02:59:41;15.73;;;5.93;;
5042;SDS011;2540;50.928;6.856;2023-06-14T03:02:06;9.00;;;5.23;;
5042;SDS011;2540;50.928;6.856;2023-06-14T03:04:31;8.20;;;6.17;;
5042;SDS011;2540;50.928;6.856;2023-06-14T03:07:02;7.57;;;6.20;;
5042;SDS011;2540;50.928;6.856;2023-06-14T03:09:34;8.40;;;6.63;;
5042;SDS011;2540;50.928;6.856;2023-06-14T03:12:02;8.83;;;6.13;;
5042;SDS011;2540;50.928;6.856;2023-06-14T03:14:28;12.83;;;6.03;;
5042;SDS011;2540;50.928;6.856;2023-06-14T03:16:55;10.33;;;6.80;;
5042;SDS011;2540;50.928;6.856;2023-06-14T03:19:21;8.30;;;6.73;;
5042;SDS011;2540;50.928;6.856;2023-06-14T03:21:47;8.67;;;5.97;;
5042;SDS011;2540;50.928;6.856;2023-06-14T03:24:12;13.13;;;7.00;;
5042;SDS011;2540;50.928;6.856;2023-06-14T03:26:38;8.30;;;6.17;;
5042;SDS011;2540;50.928;6.856;2023-06-14T03:29:03;7.53;;;5.97;;
5042;SDS011;2540;50.928;6.856;2023-06-14T03:31:29;7.53;;;6.00;;
5042;SDS011;2540;50.928;6.856;2023-06-14T03:33:57;7.57;;;5.77;;
5042;SDS011;2540;50.928;6.856;2023-06-14T03:36:23;8.37;;;5.90;;
5042;SDS011;2540;50.928;6.856;2023-06-14T03:38:48;7.77;;;5.63;;
5042;SDS011;2540;50.928;6.856;2023-06-14T03:41:14;12.50;;;6.83;;
5042;SDS011;2540;50.928;6.856;2023-06-14T03:43:39;9.03;;;6.80;;
5042;SDS011;2540;50.928;6.856;2023-06-14T03:46:04;9.93;;;6.10;;
5042;SDS011;2540;50.928;6.856;2023-06-14T03:48:30;12.10;;;6.03;;
5042;SDS011;2540;50.928;6.856;2023-06-14T03:50:55;9.47;;;5.83;;
5042;SDS011;2540;50.928;6.856;2023-06-14T03:53:21;7.20;;;6.23;;
5042;SDS011;2540;50.928;6.856;2023-06-14T03:55:48;10.00;;;6.13;;
5042;SDS011;2540;50.928;6.856;2023-06-14T03:58:15;11.93;;;6.67;;
5042;SDS011;2540;50.928;6.856;2023-06-14T04:00:40;8.80;;;5.70;;
5042;SDS011;2540;50.928;6.856;2023-06-14T04:03:06;8.60;;;6.37;;
5042;SDS011;2540;50.928;6.856;2023-06-14T04:05:31;7.17;;;5.70;;
5042;SDS011;2540;50.928;6.856;2023-06-14T04:07:57;8.23;;;6.60;;
5042;SDS011;2540;50.928;6.856;2023-06-14T04:10:23;13.00;;;6.40;;
5042;SDS011;2540;50.928;6.856;2023-06-14T04:12:49;10.60;;;6.10;;
5042;SDS011;2540;50.928;6.856;2023-06-14T04:15:15;8.00;;;6.20;;
5042;SDS011;2540;50.928;6.856;2023-06-14T04:17:41;7.60;;;5.93;;
5042;SDS011;2540;50.928;6.856;2023-06-14T04:20:06;7.03;;;5.07;;
5042;SDS011;2540;50.928;6.856;2023-06-14T04:22:34;10.90;;;6.33;;
5042;SDS011;2540;50.928;6.856;2023-06-14T04:25:01;9.73;;;6.47;;
5042;SDS011;2540;50.928;6.856;2023-06-14T04:27:26;9.10;;;5.70;;
5042;SDS011;2540;50.928;6.856;2023-06-14T04:29:53;9.03;;;6.40;;
5042;SDS011;2540;50.928;6.856;2023-06-14T04:32:30;8.93;;;6.13;;
5042;SDS011;2540;50.928;6.856;2023-06-14T04:34:58;9.20;;;5.57;;
5042;SDS011;2540;50.928;6.856;2023-06-14T04:37:25;6.23;;;5.30;;
5042;SDS011;2540;50.928;6.856;2023-06-14T04:39:53;13.17;;;6.03;;
5042;SDS011;2540;50.928;6.856;2023-06-14T04:42:20;7.03;;;5.63;;
5042;SDS011;2540;50.928;6.856;2023-06-14T04:44:49;9.30;;;5.60;;
5042;SDS011;2540;50.928;6.856;2023-06-14T04:47:15;9.13;;;5.73;;
5042;SDS011;2540;50.928;6.856;2023-06-14T04:49:41;9.57;;;5.77;;
5042;SDS011;2540;50.928;6.856;2023-06-14T04:52:07;6.93;;;6.20;;
5042;SDS011;2540;50.928;6.856;2023-06-14T04:54:35;8.47;;;5.40;;
5042;SDS011;2540;50.928;6.856;2023-06-14T04:57:02;8.67;;;5.30;;
5042;SDS011;2540;50.928;6.856;2023-06-14T04:59:29;9.90;;;5.23;;
5042;SDS011;2540;50.928;6.856;2023-06-14T05:01:58;7.63;;;5.30;;
5042;SDS011;2540;50.928;6.856;2023-06-14T05:04:23;7.60;;;4.83;;
5042;SDS011;2540;50.928;6.856;2023-06-14T05:06:50;8.00;;;4.93;;
5042;SDS011;2540;50.928;6.856;2023-06-14T05:09:16;6.53;;;4.83;;
5042;SDS011;2540;50.928;6.856;2023-06-14T05:11:44;7.23;;;5.10;;
5042;SDS011;2540;50.928;6.856;2023-06-14T05:14:13;9.83;;;5.87;;
5042;SDS011;2540;50.928;6.856;2023-06-14T05:16:39;10.20;;;5.23;;
5042;SDS011;2540;50.928;6.856;2023-06-14T05:19:04;6.63;;;5.00;;
5042;SDS011;2540;50.928;6.856;2023-06-14T05:21:30;6.73;;;4.73;;
5042;SDS011;2540;50.928;6.856;2023-06-14T05:23:57;7.30;;;5.47;;
5042;SDS011;2540;50.928;6.856;2023-06-14T05:26:22;6.90;;;4.90;;
5042;SDS011;2540;50.928;6.856;2023-06-14T05:28:50;7.13;;;4.10;;
5042;SDS011;2540;50.928;6.856;2023-06-14T05:31:17;8.70;;;5.07;;
5042;SDS011;2540;50.928;6.856;2023-06-14T05:33:42;8.47;;;4.37;;
5042;SDS011;2540;50.928;6.856;2023-06-14T05:36:08;7.30;;;4.97;;
5042;SDS011;2540;50.928;6.856;2023-06-14T05:38:33;7.33;;;4.83;;
5042;SDS011;2540;50.928;6.856;2023-06-14T05:40:59;6.10;;;4.47;;
5042;SDS011;2540;50.928;6.856;2023-06-14T05:43:24;8.00;;;4.23;;
5042;SDS011;2540;50.928;6.856;2023-06-14T05:45:49;7.40;;;4.20;;
5042;SDS011;2540;50.928;6.856;2023-06-14T05:48:15;6.33;;;3.90;;
5042;SDS011;2540;50.928;6.856;2023-06-14T05:50:40;5.70;;;3.77;;
5042;SDS011;2540;50.928;6.856;2023-06-14T05:53:05;10.53;;;5.33;;
5042;SDS011;2540;50.928;6.856;2023-06-14T05:55:31;6.43;;;4.13;;
5042;SDS011;2540;50.928;6.856;2023-06-14T05:57:56;6.43;;;4.00;;
5042;SDS011;2540;50.928;6.856;2023-06-14T06:00:22;8.13;;;3.83;;
5042;SDS011;2540;50.928;6.856;2023-06-14T06:02:47;5.90;;;4.10;;
5042;SDS011;2540;50.928;6.856;2023-06-14T06:05:13;6.27;;;4.20;;
5042;SDS011;2540;50.928;6.856;2023-06-14T06:07:38;6.87;;;4.10;;
5042;SDS011;2540;50.928;6.856;2023-06-14T06:10:05;7.80;;;4.20;;
5042;SDS011;2540;50.928;6.856;2023-06-14T06:12:31;7.93;;;3.57;;
5042;SDS011;2540;50.928;6.856;2023-06-14T06:14:57;22.53;;;3.57;;
5042;SDS011;2540;50.928;6.856;2023-06-14T06:17:23;9.00;;;4.03;;
5042;SDS011;2540;50.928;6.856;2023-06-14T06:19:49;10.90;;;3.40;;
5042;SDS011;2540;50.928;6.856;2023-06-14T06:22:15;7.03;;;3.77;;
5042;SDS011;2540;50.928;6.856;2023-06-14T06:24:40;5.93;;;3.43;;
5042;SDS011;2540;50.928;6.856;2023-06-14T06:27:05;7.77;;;4.03;;
5042;SDS011;2540;50.928;6.856;2023-06-14T06:29:33;9.00;;;4.10;;
5042;SDS011;2540;50.928;6.856;2023-06-14T06:31:58;9.03;;;3.63;;
5042;SDS011;2540;50.928;6.856;2023-06-14T06:34:24;5.43;;;3.03;;
5042;SDS011;2540;50.928;6.856;2023-06-14T06:36:49;3.67;;;2.70;;
5042;SDS011;2540;50.928;6.856;2023-06-14T06:39:14;8.27;;;3.40;;
5042;SDS011;2540;50.928;6.856;2023-06-14T06:41:40;6.60;;;3.40;;
5042;SDS011;2540;50.928;6.856;2023-06-14T06:44:05;4.77;;;3.40;;
5042;SDS011;2540;50.928;6.856;2023-06-14T06:46:34;5.10;;;3.27;;
5042;SDS011;2540;50.928;6.856;2023-06-14T06:49:00;5.57;;;3.17;;
5042;SDS011;2540;50.928;6.856;2023-06-14T06:51:25;5.10;;;3.17;;
5042;SDS011;2540;50.928;6.856;2023-06-14T06:53:54;4.00;;;2.80;;
5042;SDS011;2540;50.928;6.856;2023-06-14T06:56:20;5.47;;;2.70;;
5042;SDS011;2540;50.928;6.856;2023-06-14T06:58:47;7.57;;;3.80;;
5042;SDS011;2540;50.928;6.856;2023-06-14T07:01:13;8.23;;;3.80;;
5042;SDS011;2540;50.928;6.856;2023-06-14T07:03:38;5.90;;;3.87;;
5042;SDS011;2540;50.928;6.856;2023-06-14T07:06:04;5.93;;;3.70;;
5042;SDS011;2540;50.928;6.856;2023-06-14T07:08:29;6.03;;;3.43;;
5042;SDS011;2540;50.928;6.856;2023-06-14T07:10:54;11.90;;;3.70;;
5042;SDS011;2540;50.928;6.856;2023-06-14T07:13:21;11.60;;;3.93;;
5042;SDS011;2540;50.928;6.856;2023-06-14T07:15:46;7.33;;;3.50;;
5042;SDS011;2540;50.928;6.856;2023-06-14T07:18:12;5.30;;;2.57;;
5042;SDS011;2540;50.928;6.856;2023-06-14T07:20:37;5.67;;;3.50;;
5042;SDS011;2540;50.928;6.856;2023-06-14T07:23:03;5.00;;;3.30;;
5042;SDS011;2540;50.928;6.856;2023-06-14T07:25:29;4.07;;;3.07;;
5042;SDS011;2540;50.928;6.856;2023-06-14T07:27:54;9.47;;;3.03;;
5042;SDS011;2540;50.928;6.856;2023-06-14T07:30:19;6.63;;;2.70;;
5042;SDS011;2540;50.928;6.856;2023-06-14T07:32:45;5.93;;;3.40;;
5042;SDS011;2540;50.928;6.856;2023-06-14T07:35:10;5.30;;;3.77;;
5042;SDS011;2540;50.928;6.856;2023-06-14T07:37:36;6.93;;;3.23;;
5042;SDS011;2540;50.928;6.856;2023-06-14T07:40:01;16.53;;;3.50;;
5042;SDS011;2540;50.928;6.856;2023-06-14T07:42:31;4.40;;;2.67;;
5042;SDS011;2540;50.928;6.856;2023-06-14T07:44:57;5.70;;;2.50;;
5042;SDS011;2540;50.928;6.856;2023-06-14T07:47:23;4.40;;;2.60;;
5042;SDS011;2540;50.928;6.856;2023-06-14T07:49:48;8.90;;;2.63;;
5042;SDS011;2540;50.928;6.856;2023-06-14T07:52:13;5.17;;;3.10;;
5042;SDS011;2540;50.928;6.856;2023-06-14T07:54:39;8.60;;;2.97;;
5042;SDS011;2540;50.928;6.856;2023-06-14T07:57:06;3.57;;;2.70;;
5042;SDS011;2540;50.928;6.856;2023-06-14T07:59:31;3.73;;;2.60;;
5042;SDS011;2540;50.928;6.856;2023-06-14T08:01:56;2.77;;;2.47;;
5042;SDS011;2540;50.928;6.856;2023-06-14T08:04:22;8.93;;;2.70;;
5042;SDS011;2540;50.928;6.856;2023-06-14T08:06:47;4.03;;;2.60;;
5042;SDS011;2540;50.928;6.856;2023-06-14T08:09:13;3.60;;;2.27;;
5042;SDS011;2540;50.928;6.856;2023-06-14T08:11:38;3.70;;;2.60;;
5042;SDS011;2540;50.928;6.856;2023-06-14T08:14:03;6.37;;;3.00;;
5042;SDS011;2540;50.928;6.856;2023-06-14T08:16:29;7.37;;;2.53;;
5042;SDS011;2540;50.928;6.856;2023-06-14T08:18:55;6.90;;;2.57;;
5042;SDS011;2540;50.928;6.856;2023-06-14T08:21:20;6.63;;;2.50;;
5042;SDS011;2540;50.928;6.856;2023-06-14T08:23:45;6.13;;;2.70;;
5042;SDS011;2540;50.928;6.856;2023-06-14T08:26:11;2.87;;;2.40;;
5042;SDS011;2540;50.928;6.856;2023-06-14T08:28:36;3.70;;;2.00;;
5042;SDS011;2540;50.928;6.856;2023-06-14T08:31:02;4.50;;;2.30;;
5042;SDS011;2540;50.928;6.856;2023-06-14T08:33:27;5.83;;;2.43;;
5042;SDS011;2540;50.928;6.856;2023-06-14T08:35:53;4.37;;;1.90;;
5042;SDS011;2540;50.928;6.856;2023-06-14T08:38:18;7.60;;;1.80;;
5042;SDS011;2540;50.928;6.856;2023-06-14T08:40:44;2.47;;;1.60;;
5042;SDS011;2540;50.928;6.856;2023-06-14T08:43:10;4.17;;;2.00;;
5042;SDS011;2540;50.928;6.856;2023-06-14T08:45:35;8.03;;;2.67;;
5042;SDS011;2540;50.928;6.856;2023-06-14T08:48:01;2.80;;;1.60;;
5042;SDS011;2540;50.928;6.856;2023-06-14T08:50:27;4.20;;;1.77;;
5042;SDS011;2540;50.928;6.856;2023-06-14T08:52:57;1.90;;;1.50;;
5042;SDS011;2540;50.928;6.856;2023-06-14T08:55:26;2.00;;;1.60;;
5042;SDS011;2540;50.928;6.856;2023-06-14T08:57:56;3.93;;;2.40;;
5042;SDS011;2540;50.928;6.856;2023-06-14T09:00:25;1.93;;;1.70;;
5042;SDS011;2540;50.928;6.856;2023-06-14T09:02:52;2.97;;;1.97;;
5042;SDS011;2540;50.928;6.856;2023-06-14T09:05:23;4.30;;;2.00;;
5042;SDS011;2540;50.928;6.856;2023-06-14T09:07:51;3.90;;;1.83;;
5042;SDS011;2540;50.928;6.856;2023-06-14T09:10:17;2.40;;;2.00;;
5042;SDS011;2540;50.928;6.856;2023-06-14T09:12:43;2.43;;;1.67;;
5042;SDS011;2540;50.928;6.856;2023-06-14T09:15:09;2.63;;;1.90;;
5042;SDS011;2540;50.928;6.856;2023-06-14T09:17:34;2.80;;;2.03;;
5042;SDS011;2540;50.928;6.856;2023-06-14T09:20:01;5.87;;;2.07;;
5042;SDS011;2540;50.928;6.856;2023-06-14T09:22:31;2.73;;;2.17;;
5042;SDS011;2540;50.928;6.856;2023-06-14T09:24:56;2.37;;;1.97;;
5042;SDS011;2540;50.928;6.856;2023-06-14T09:27:22;3.07;;;2.17;;
5042;SDS011;2540;50.928;6.856;2023-06-14T09:29:47;4.23;;;1.63;;
5042;SDS011;2540;50.928;6.856;2023-06-14T09:32:12;2.60;;;2.00;;
5042;SDS011;2540;50.928;6.856;2023-06-14T09:34:38;5.00;;;2.10;;
5042;SDS011;2540;50.928;6.856;2023-06-14T09:37:03;2.57;;;1.70;;
5042;SDS011;2540;50.928;6.856;2023-06-14T09:39:29;2.47;;;1.80;;
5042;SDS011;2540;50.928;6.856;2023-06-14T09:41:55;2.90;;;1.67;;
5042;SDS011;2540;50.928;6.856;2023-06-14T09:44:20;1.93;;;1.70;;
5042;SDS011;2540;50.928;6.856;2023-06-14T09:46:46;4.13;;;1.77;;
5042;SDS011;2540;50.928;6.856;2023-06-14T09:49:13;2.37;;;1.97;;
5042;SDS011;2540;50.928;6.856;2023-06-14T09:51:42;3.43;;;2.07;;
5042;SDS011;2540;50.928;6.856;2023-06-14T09:54:08;2.57;;;1.93;;
5042;SDS011;2540;50.928;6.856;2023-06-14T09:56:46;3.83;;;2.30;;
5042;SDS011;2540;50.928;6.856;2023-06-14T09:59:12;2.80;;;1.90;;
5042;SDS011;2540;50.928;6.856;2023-06-14T10:01:41;3.30;;;2.00;;
5042;SDS011;2540;50.928;6.856;2023-06-14T10:04:07;6.30;;;2.10;;
5042;SDS011;2540;50.928;6.856;2023-06-14T10:06:39;4.40;;;2.00;;
5042;SDS011;2540;50.928;6.856;2023-06-14T10:09:07;2.70;;;1.93;;
5042;SDS011;2540;50.928;6.856;2023-06-14T10:11:34;1.93;;;1.70;;
5042;SDS011;2540;50.928;6.856;2023-06-14T10:14:00;6.90;;;1.97;;
5042;SDS011;2540;50.928;6.856;2023-06-14T10:16:29;3.13;;;1.73;;
5042;SDS011;2540;50.928;6.856;2023-06-14T10:19:03;2.70;;;2.20;;
5042;SDS011;2540;50.928;6.856;2023-06-14T10:21:36;4.83;;;2.20;;
5042;SDS011;2540;50.928;6.856;2023-06-14T10:24:08;4.30;;;2.77;;
5042;SDS011;2540;50.928;6.856;2023-06-14T10:26:40;8.73;;;2.00;;
5042;SDS011;2540;50.928;6.856;2023-06-14T10:29:18;2.63;;;2.00;;
5042;SDS011;2540;50.928;6.856;2023-06-14T10:31:44;3.73;;;2.10;;
5042;SDS011;2540;50.928;6.856;2023-06-14T10:34:12;7.70;;;2.10;;
5042;SDS011;2540;50.928;6.856;2023-06-14T10:36:38;3.90;;;2.17;;
5042;SDS011;2540;50.928;6.856;2023-06-14T10:39:07;2.70;;;2.23;;
5042;SDS011;2540;50.928;6.856;2023-06-14T10:41:40;2.63;;;2.00;;
5042;SDS011;2540;50.928;6.856;2023-06-14T10:46:37;2.20;;;1.80;;
5042;SDS011;2540;50.928;6.856;2023-06-14T10:49:02;5.43;;;2.40;;
5042;SDS011;2540;50.928;6.856;2023-06-14T10:51:29;3.77;;;2.00;;
5042;SDS011;2540;50.928;6.856;2023-06-14T10:53:55;2.47;;;1.83;;
5042;SDS011;2540;50.928;6.856;2023-06-14T10:58:54;2.20;;;1.70;;
5042;SDS011;2540;50.928;6.856;2023-06-14T11:01:23;3.80;;;2.00;;
5042;SDS011;2540;50.928;6.856;2023-06-14T11:03:59;2.83;;;1.87;;
5042;SDS011;2540;50.928;6.856;2023-06-14T11:06:34;4.20;;;1.80;;
5042;SDS011;2540;50.928;6.856;2023-06-14T11:09:21;2.57;;;2.10;;
5042;SDS011;2540;50.928;6.856;2023-06-14T11:11:57;2.80;;;2.00;;
5042;SDS011;2540;50.928;6.856;2023-06-14T11:14:22;5.10;;;2.30;;
5042;SDS011;2540;50.928;6.856;2023-06-14T11:16:49;8.33;;;2.00;;
5042;SDS011;2540;50.928;6.856;2023-06-14T11:19:14;4.03;;;1.77;;
5042;SDS011;2540;50.928;6.856;2023-06-14T11:21:42;3.27;;;1.80;;
5042;SDS011;2540;50.928;6.856;2023-06-14T11:24:09;2.20;;;1.60;;
5042;SDS011;2540;50.928;6.856;2023-06-14T11:26:37;6.77;;;2.03;;
5042;SDS011;2540;50.928;6.856;2023-06-14T11:29:02;6.87;;;2.10;;
5042;SDS011;2540;50.928;6.856;2023-06-14T11:31:28;6.40;;;2.20;;
5042;SDS011;2540;50.928;6.856;2023-06-14T11:33:54;3.63;;;1.80;;
5042;SDS011;2540;50.928;6.856;2023-06-14T11:36:21;5.67;;;1.63;;
5042;SDS011;2540;50.928;6.856;2023-06-14T11:38:47;2.63;;;2.00;;
5042;SDS011;2540;50.928;6.856;2023-06-14T11:41:12;6.03;;;2.30;;
5042;SDS011;2540;50.928;6.856;2023-06-14T11:43:39;4.00;;;1.53;;
5042;SDS011;2540;50.928;6.856;2023-06-14T11:46:11;3.70;;;2.10;;
5042;SDS011;2540;50.928;6.856;2023-06-14T11:48:40;3.30;;;2.47;;
5042;SDS011;2540;50.928;6.856;2023-06-14T11:51:06;10.93;;;2.10;;
5042;SDS011;2540;50.928;6.856;2023-06-14T11:53:31;2.60;;;2.17;;
5042;SDS011;2540;50.928;6.856;2023-06-14T11:55:57;4.33;;;2.50;;
5042;SDS011;2540;50.928;6.856;2023-06-14T11:58:23;5.37;;;2.60;;
5042;SDS011;2540;50.928;6.856;2023-06-14T12:00:48;3.20;;;2.30;;
5042;SDS011;2540;50.928;6.856;2023-06-14T12:03:14;5.30;;;1.90;;
5042;SDS011;2540;50.928;6.856;2023-06-14T12:05:39;6.00;;;2.20;;
5042;SDS011;2540;50.928;6.856;2023-06-14T12:08:05;3.17;;;2.07;;
5042;SDS011;2540;50.928;6.856;2023-06-14T12:10:39;6.60;;;2.53;;
5042;SDS011;2540;50.928;6.856;2023-06-14T12:13:08;5.03;;;1.90;;
5042;SDS011;2540;50.928;6.856;2023-06-14T12:15:34;2.93;;;2.10;;
5042;SDS011;2540;50.928;6.856;2023-06-14T12:17:59;6.40;;;2.23;;
5042;SDS011;2540;50.928;6.856;2023-06-14T12:20:28;2.97;;;2.27;;
5042;SDS011;2540;50.928;6.856;2023-06-14T12:22:55;3.73;;;2.30;;
5042;SDS011;2540;50.928;6.856;2023-06-14T12:28:04;5.93;;;2.17;;
5042;SDS011;2540;50.928;6.856;2023-06-14T12:30:33;4.40;;;1.93;;
5042;SDS011;2540;50.928;6.856;2023-06-14T12:32:58;2.30;;;2.10;;
5042;SDS011;2540;50.928;6.856;2023-06-14T12:35:25;3.27;;;1.90;;
5042;SDS011;2540;50.928;6.856;2023-06-14T12:37:50;7.03;;;2.07;;
5042;SDS011;2540;50.928;6.856;2023-06-14T12:40:15;6.10;;;2.10;;
5042;SDS011;2540;50.928;6.856;2023-06-14T12:42:41;5.00;;;1.93;;
5042;SDS011;2540;50.928;6.856;2023-06-14T12:45:07;2.87;;;1.53;;
5042;SDS011;2540;50.928;6.856;2023-06-14T12:47:32;1.70;;;1.60;;
5042;SDS011;2540;50.928;6.856;2023-06-14T12:49:57;3.33;;;2.23;;
5042;SDS011;2540;50.928;6.856;2023-06-14T12:52:23;2.47;;;2.10;;
5042;SDS011;2540;50.928;6.856;2023-06-14T12:54:49;4.43;;;2.10;;
5042;SDS011;2540;50.928;6.856;2023-06-14T12:57:15;2.60;;;2.00;;
5042;SDS011;2540;50.928;6.856;2023-06-14T12:59:40;2.37;;;1.60;;
5042;SDS011;2540;50.928;6.856;2023-06-14T13:02:16;3.10;;;2.13;;
5042;SDS011;2540;50.928;6.856;2023-06-14T13:04:42;2.70;;;1.73;;
5042;SDS011;2540;50.928;6.856;2023-06-14T13:07:08;1.60;;;1.50;;
5042;SDS011;2540;50.928;6.856;2023-06-14T13:09:33;2.50;;;1.70;;
5042;SDS011;2540;50.928;6.856;2023-06-14T13:11:59;7.27;;;1.77;;
5042;SDS011;2540;50.928;6.856;2023-06-14T13:14:24;2.40;;;2.10;;
5042;SDS011;2540;50.928;6.856;2023-06-14T13:16:50;4.47;;;1.90;;
5042;SDS011;2540;50.928;6.856;2023-06-14T13:19:15;2.23;;;1.90;;
5042;SDS011;2540;50.928;6.856;2023-06-14T13:21:40;2.20;;;1.60;;
5042;SDS011;2540;50.928;6.856;2023-06-14T13:24:06;5.70;;;1.73;;
5042;SDS011;2540;50.928;6.856;2023-06-14T13:26:32;2.00;;;1.50;;
5042;SDS011;2540;50.928;6.856;2023-06-14T13:28:58;2.40;;;1.70;;
5042;SDS011;2540;50.928;6.856;2023-06-14T13:31:23;2.40;;;1.53;;
5042;SDS011;2540;50.928;6.856;2023-06-14T13:33:48;5.60;;;1.60;;
5042;SDS011;2540;50.928;6.856;2023-06-14T13:36:14;3.30;;;2.00;;
5042;SDS011;2540;50.928;6.856;2023-06-14T13:38:39;1.50;;;1.30;;
5042;SDS011;2540;50.928;6.856;2023-06-14T13:41:05;1.60;;;1.50;;
5042;SDS011;2540;50.928;6.856;2023-06-14T13:43:30;5.07;;;1.93;;
5042;SDS011;2540;50.928;6.856;2023-06-14T13:45:55;3.80;;;1.80;;
5042;SDS011;2540;50.928;6.856;2023-06-14T13:48:20;1.80;;;1.70;;
5042;SDS011;2540;50.928;6.856;2023-06-14T13:50:46;2.63;;;1.80;;
5042;SDS011;2540;50.928;6.856;2023-06-14T13:53:12;3.30;;;1.70;;
5042;SDS011;2540;50.928;6.856;2023-06-14T13:55:39;1.73;;;1.33;;
5042;SDS011;2540;50.928;6.856;2023-06-14T13:58:04;1.60;;;1.50;;
5042;SDS011;2540;50.928;6.856;2023-06-14T14:00:29;1.83;;;1.50;;
5042;SDS011;2540;50.928;6.856;2023-06-14T14:02:55;4.93;;;1.90;;
5042;SDS011;2540;50.928;6.856;2023-06-14T14:05:22;4.60;;;2.57;;
5042;SDS011;2540;50.928;6.856;2023-06-14T14:07:51;6.80;;;2.20;;
5042;SDS011;2540;50.928;6.856;2023-06-14T14:10:17;2.30;;;2.10;;
5042;SDS011;2540;50.928;6.856;2023-06-14T14:12:45;3.70;;;2.40;;
5042;SDS011;2540;50.928;6.856;2023-06-14T14:15:11;2.17;;;1.97;;
5042;SDS011;2540;50.928;6.856;2023-06-14T14:17:37;11.03;;;2.20;;
5042;SDS011;2540;50.928;6.856;2023-06-14T14:20:03;3.87;;;2.10;;
5042;SDS011;2540;50.928;6.856;2023-06-14T14:22:29;2.20;;;1.80;;
5042;SDS011;2540;50.928;6.856;2023-06-14T14:24:54;3.83;;;2.40;;
5042;SDS011;2540;50.928;6.856;2023-06-14T14:27:20;4.10;;;1.97;;
5042;SDS011;2540;50.928;6.856;2023-06-14T14:29:45;2.33;;;1.77;;
5042;SDS011;2540;50.928;6.856;2023-06-14T14:32:10;2.10;;;1.90;;
5042;SDS011;2540;50.928;6.856;2023-06-14T14:34:39;3.90;;;1.90;;
5042;SDS011;2540;50.928;6.856;2023-06-14T14:37:04;4.67;;;2.33;;
5042;SDS011;2540;50.928;6.856;2023-06-14T14:39:30;3.73;;;2.07;;
5042;SDS011;2540;50.928;6.856;2023-06-14T14:41:55;3.33;;;2.13;;
5042;SDS011;2540;50.928;6.856;2023-06-14T14:44:21;3.60;;;1.87;;
5042;SDS011;2540;50.928;6.856;2023-06-14T14:46:46;3.00;;;1.97;;
5042;SDS011;2540;50.928;6.856;2023-06-14T14:49:11;4.63;;;2.20;;
5042;SDS011;2540;50.928;6.856;2023-06-14T14:51:37;2.07;;;1.90;;
5042;SDS011;2540;50.928;6.856;2023-06-14T14:54:03;7.20;;;2.30;;
5042;SDS011;2540;50.928;6.856;2023-06-14T14:56:29;2.20;;;2.00;;
5042;SDS011;2540;50.928;6.856;2023-06-14T14:58:54;2.10;;;1.90;;
5042;SDS011;2540;50.928;6.856;2023-06-14T15:01:19;7.27;;;2.10;;
5042;SDS011;2540;50.928;6.856;2023-06-14T15:03:45;4.77;;;2.07;;
5042;SDS011;2540;50.928;6.856;2023-06-14T15:06:10;4.13;;;1.70;;
5042;SDS011;2540;50.928;6.856;2023-06-14T15:08:35;4.97;;;2.20;;
5042;SDS011;2540;50.928;6.856;2023-06-14T15:11:01;3.27;;;2.07;;
5042;SDS011;2540;50.928;6.856;2023-06-14T15:13:27;6.13;;;2.10;;
5042;SDS011;2540;50.928;6.856;2023-06-14T15:15:53;8.07;;;1.80;;
5042;SDS011;2540;50.928;6.856;2023-06-14T15:18:18;2.90;;;2.10;;
5042;SDS011;2540;50.928;6.856;2023-06-14T15:20:45;3.37;;;2.50;;
5042;SDS011;2540;50.928;6.856;2023-06-14T15:23:11;3.10;;;2.30;;
5042;SDS011;2540;50.928;6.856;2023-06-14T15:25:36;4.60;;;2.00;;